createdAt,value
2022-09-21T00:00:11.280Z,7.26
2022-09-21T00:01:11.341Z,7.27
2022-09-21T00:02:11.314Z,7.19
2022-09-21T00:03:11.236Z,7.16
2022-09-21T00:04:11.227Z,7.12
2022-09-21T00:05:11.214Z,7.15
2022-09-21T00:06:11.217Z,7.21
2022-09-21T00:07:11.185Z,7.11
2022-09-21T00:08:11.168Z,7.21
2022-09-21T00:09:11.157Z,7.08
2022-09-21T00:10:11.143Z,6.99
2022-09-21T00:11:11.136Z,7.07
2022-09-21T00:12:11.114Z,6.94
2022-09-21T00:13:11.104Z,7.00
2022-09-21T00:14:11.095Z,6.99
2022-09-21T00:15:11.083Z,6.99
2022-09-21T00:16:11.141Z,7.11
2022-09-21T00:17:11.045Z,7.05
2022-09-21T00:18:11.035Z,7.00
2022-09-21T00:19:11.020Z,7.01
2022-09-21T00:20:11.007Z,6.91
2022-09-21T00:21:10.996Z,7.04
2022-09-21T00:22:10.997Z,6.91
2022-09-21T00:23:10.975Z,6.86
2022-09-21T00:24:10.953Z,6.81
2022-09-21T00:25:10.941Z,6.83
2022-09-21T00:26:10.924Z,6.87
2022-09-21T00:27:10.914Z,6.73
2022-09-21T00:28:10.893Z,6.81
2022-09-21T00:29:11.033Z,6.79
2022-09-21T00:30:10.871Z,6.82
2022-09-21T00:31:10.858Z,6.71
2022-09-21T00:32:10.842Z,6.72
2022-09-21T00:33:10.828Z,6.65
2022-09-21T00:34:10.813Z,6.68
2022-09-21T00:35:10.798Z,6.69
2022-09-21T00:36:10.789Z,6.60
2022-09-21T00:37:10.786Z,6.55
2022-09-21T00:38:10.775Z,6.61
2022-09-21T00:39:10.754Z,6.53
2022-09-21T00:40:10.846Z,6.60
2022-09-21T00:41:10.723Z,6.61
2022-09-21T00:42:10.695Z,6.55
2022-09-21T00:43:10.695Z,6.64
2022-09-21T00:44:10.673Z,6.64
2022-09-21T00:45:10.669Z,6.64
2022-09-21T00:46:10.702Z,6.64
2022-09-21T00:47:10.637Z,6.63
2022-09-21T00:48:10.622Z,6.61
2022-09-21T00:49:10.606Z,6.58
2022-09-21T00:50:10.594Z,6.57
2022-09-21T00:51:10.582Z,6.55
2022-09-21T00:52:10.571Z,6.55
2022-09-21T00:53:10.560Z,6.61
2022-09-21T00:54:10.557Z,6.40
2022-09-21T00:55:10.532Z,6.40
2022-09-21T00:56:10.508Z,6.36
2022-09-21T00:57:10.498Z,6.32
2022-09-21T00:58:10.481Z,6.24
2022-09-21T00:59:10.477Z,6.27
2022-09-21T01:00:10.460Z,6.35
2022-09-21T01:01:10.464Z,6.24
2022-09-21T01:02:10.445Z,6.27
2022-09-21T01:03:10.419Z,6.27
2022-09-21T01:04:10.395Z,6.02
2022-09-21T01:05:10.385Z,6.19
2022-09-21T01:06:10.368Z,6.17
2022-09-21T01:07:10.360Z,6.05
2022-09-21T01:08:10.339Z,6.19
2022-09-21T01:09:10.333Z,6.10
2022-09-21T01:10:10.335Z,6.11
2022-09-21T01:11:10.307Z,6.14
2022-09-21T01:12:10.295Z,6.13
2022-09-21T01:13:10.274Z,5.98
2022-09-21T01:14:10.260Z,6.08
2022-09-21T01:15:10.250Z,6.11
2022-09-21T01:16:10.272Z,6.16
2022-09-21T01:17:10.218Z,6.16
2022-09-21T01:18:10.204Z,6.02
2022-09-21T01:19:10.213Z,6.20
2022-09-21T01:20:10.178Z,6.13
2022-09-21T01:21:10.165Z,6.11
2022-09-21T01:22:10.144Z,6.13
2022-09-21T01:23:10.137Z,6.06
2022-09-21T01:24:10.121Z,6.06
2022-09-21T01:25:10.110Z,5.99
2022-09-21T01:26:10.120Z,6.02
2022-09-21T01:27:10.078Z,5.88
2022-09-21T01:28:10.069Z,5.99
2022-09-21T01:29:10.055Z,5.84
2022-09-21T01:30:10.039Z,5.75
2022-09-21T01:31:10.072Z,5.93
2022-09-21T01:32:10.014Z,5.85
2022-09-21T01:33:09.999Z,5.84
2022-09-21T01:34:09.985Z,5.84
2022-09-21T01:35:09.971Z,5.95
2022-09-21T01:36:09.959Z,5.81
2022-09-21T01:37:09.947Z,5.85
2022-09-21T01:38:09.931Z,5.83
2022-09-21T01:39:09.920Z,5.85
2022-09-21T01:40:09.943Z,5.70
2022-09-21T01:41:09.894Z,5.69
2022-09-21T01:42:09.890Z,5.81
2022-09-21T01:43:09.871Z,5.65
2022-09-21T01:44:09.849Z,5.66
2022-09-21T01:45:09.992Z,5.58
2022-09-21T01:46:09.820Z,5.60
2022-09-21T01:47:09.815Z,5.55
2022-09-21T01:48:09.796Z,5.66
2022-09-21T01:49:09.786Z,5.58
2022-09-21T01:50:09.767Z,5.73
2022-09-21T01:51:09.763Z,5.65
2022-09-21T01:52:09.741Z,5.60
2022-09-21T01:53:09.728Z,5.66
2022-09-21T01:54:09.713Z,5.63
2022-09-21T01:55:09.702Z,5.62
2022-09-21T01:56:09.687Z,5.69
2022-09-21T01:57:09.669Z,5.56
2022-09-21T01:58:09.682Z,5.59
2022-09-21T01:59:09.674Z,5.55
2022-09-21T02:00:09.635Z,5.60
2022-09-21T02:01:09.659Z,5.66
2022-09-21T02:02:09.668Z,5.66
2022-09-21T02:03:09.595Z,5.63
2022-09-21T02:04:09.639Z,5.55
2022-09-21T02:05:09.563Z,5.58
2022-09-21T02:06:09.558Z,5.48
2022-09-21T02:07:09.539Z,5.48
2022-09-21T02:08:09.530Z,5.56
2022-09-21T02:09:09.510Z,5.58
2022-09-21T02:10:09.503Z,5.59
2022-09-21T02:11:09.483Z,5.63
2022-09-21T02:12:09.483Z,5.47
2022-09-21T02:13:09.464Z,5.38
2022-09-21T02:14:09.467Z,5.48
2022-09-21T02:15:09.437Z,5.45
2022-09-21T02:16:09.492Z,5.56
2022-09-21T02:17:09.408Z,5.51
2022-09-21T02:18:09.396Z,5.52
2022-09-21T02:19:09.382Z,5.47
2022-09-21T02:20:09.365Z,5.45
2022-09-21T02:21:09.358Z,5.33
2022-09-21T02:22:09.344Z,5.37
2022-09-21T02:23:09.329Z,5.37
2022-09-21T02:24:09.310Z,5.35
2022-09-21T02:25:09.301Z,5.33
2022-09-21T02:26:09.295Z,5.30
2022-09-21T02:27:09.276Z,5.27
2022-09-21T02:28:09.460Z,5.33
2022-09-21T02:29:09.247Z,5.26
2022-09-21T02:30:09.314Z,5.14
2022-09-21T02:31:09.302Z,5.14
2022-09-21T02:32:09.213Z,5.08
2022-09-21T02:33:09.195Z,5.05
2022-09-21T02:34:09.188Z,5.05
2022-09-21T02:35:09.175Z,5.15
2022-09-21T02:36:09.153Z,5.12
2022-09-21T02:37:09.141Z,5.11
2022-09-21T02:38:09.127Z,5.11
2022-09-21T02:39:09.113Z,5.09
2022-09-21T02:40:09.171Z,5.04
2022-09-21T02:41:09.081Z,5.01
2022-09-21T02:42:09.075Z,4.99
2022-09-21T02:43:09.053Z,5.02
2022-09-21T02:44:09.052Z,4.99
2022-09-21T02:45:09.028Z,5.01
2022-09-21T02:46:09.095Z,5.06
2022-09-21T02:47:09.003Z,5.01
2022-09-21T02:48:08.991Z,5.04
2022-09-21T02:49:08.979Z,5.02
2022-09-21T02:50:08.961Z,4.90
2022-09-21T02:51:08.944Z,4.86
2022-09-21T02:52:08.942Z,4.94
2022-09-21T02:53:08.920Z,4.97
2022-09-21T02:54:08.911Z,4.87
2022-09-21T02:55:08.895Z,4.88
2022-09-21T02:56:08.885Z,4.83
2022-09-21T02:57:08.863Z,4.83
2022-09-21T02:58:08.856Z,4.86
2022-09-21T02:59:08.841Z,4.86
2022-09-21T03:00:08.828Z,4.77
2022-09-21T03:01:08.927Z,4.77
2022-09-21T03:02:08.969Z,4.80
2022-09-21T03:03:08.791Z,4.74
2022-09-21T03:04:08.780Z,4.72
2022-09-21T03:05:08.761Z,4.64
2022-09-21T03:06:08.748Z,4.64
2022-09-21T03:07:08.732Z,4.65
2022-09-21T03:08:08.721Z,4.69
2022-09-21T03:09:08.700Z,4.57
2022-09-21T03:10:08.692Z,4.69
2022-09-21T03:11:08.674Z,4.61
2022-09-21T03:12:08.665Z,4.59
2022-09-21T03:13:08.652Z,4.72
2022-09-21T03:14:08.641Z,4.51
2022-09-21T03:15:08.621Z,4.56
2022-09-21T03:16:08.665Z,4.62
2022-09-21T03:17:08.597Z,4.53
2022-09-21T03:18:08.649Z,4.50
2022-09-21T03:19:08.569Z,4.65
2022-09-21T03:20:08.565Z,4.61
2022-09-21T03:21:08.547Z,4.50
2022-09-21T03:22:08.534Z,4.54
2022-09-21T03:23:08.516Z,4.54
2022-09-21T03:24:08.508Z,4.50
2022-09-21T03:25:08.483Z,4.54
2022-09-21T03:26:08.473Z,4.35
2022-09-21T03:27:08.456Z,4.51
2022-09-21T03:28:08.445Z,4.43
2022-09-21T03:29:08.431Z,4.38
2022-09-21T03:30:08.426Z,4.51
2022-09-21T03:31:08.510Z,4.57
2022-09-21T03:32:08.398Z,4.38
2022-09-21T03:33:08.375Z,4.39
2022-09-21T03:34:08.448Z,4.42
2022-09-21T03:35:08.346Z,4.39
2022-09-21T03:36:08.342Z,4.46
2022-09-21T03:37:08.321Z,4.43
2022-09-21T03:38:08.305Z,4.29
2022-09-21T03:39:08.293Z,4.44
2022-09-21T03:40:08.330Z,4.32
2022-09-21T03:41:08.270Z,4.26
2022-09-21T03:42:08.260Z,4.29
2022-09-21T03:43:08.239Z,4.31
2022-09-21T03:44:08.270Z,4.25
2022-09-21T03:45:08.220Z,4.31
2022-09-21T03:46:08.248Z,4.28
2022-09-21T03:47:08.193Z,4.20
2022-09-21T03:48:08.174Z,4.24
2022-09-21T03:49:08.162Z,4.28
2022-09-21T03:50:10.152Z,4.31
2022-09-21T03:51:08.132Z,4.21
2022-09-21T03:52:08.120Z,4.28
2022-09-21T03:53:08.105Z,4.16
2022-09-21T03:54:08.093Z,4.28
2022-09-21T03:55:08.081Z,4.18
2022-09-21T03:56:08.074Z,4.10
2022-09-21T03:57:08.055Z,4.21
2022-09-21T03:58:08.041Z,4.26
2022-09-21T03:59:13.192Z,4.25
2022-09-21T04:00:09.035Z,4.17
2022-09-21T04:01:08.006Z,4.17
2022-09-21T04:02:07.988Z,4.14
2022-09-21T04:03:07.967Z,4.24
2022-09-21T04:04:08.071Z,4.17
2022-09-21T04:05:07.946Z,4.02
2022-09-21T04:06:07.952Z,4.02
2022-09-21T04:07:07.918Z,4.07
2022-09-21T04:08:07.908Z,4.04
2022-09-21T04:09:07.891Z,3.98
2022-09-21T04:10:07.882Z,3.99
2022-09-21T04:11:07.864Z,4.04
2022-09-21T04:12:07.855Z,3.98
2022-09-21T04:13:07.832Z,3.93
2022-09-21T04:14:07.821Z,3.95
2022-09-21T04:15:07.807Z,3.93
2022-09-21T04:16:07.964Z,3.90
2022-09-21T04:17:07.779Z,3.99
2022-09-21T04:18:07.767Z,3.90
2022-09-21T04:19:07.762Z,3.93
2022-09-21T04:20:07.744Z,3.92
2022-09-21T04:21:07.728Z,3.89
2022-09-21T04:22:07.750Z,3.93
2022-09-21T04:23:07.702Z,3.89
2022-09-21T04:24:07.693Z,3.86
2022-09-21T04:25:07.675Z,3.90
2022-09-21T04:26:07.669Z,3.92
2022-09-21T04:27:07.667Z,3.96
2022-09-21T04:28:07.637Z,3.88
2022-09-21T04:29:07.615Z,3.88
2022-09-21T04:30:07.613Z,3.86
2022-09-21T04:31:07.698Z,3.74
2022-09-21T04:32:07.584Z,3.77
2022-09-21T04:33:07.617Z,3.77
2022-09-21T04:34:07.558Z,3.81
2022-09-21T04:35:07.538Z,3.82
2022-09-21T04:36:07.528Z,3.78
2022-09-21T04:37:07.507Z,3.78
2022-09-21T04:38:07.519Z,3.81
2022-09-21T04:39:07.482Z,3.92
2022-09-21T04:40:07.587Z,3.82
2022-09-21T04:41:07.458Z,3.67
2022-09-21T04:42:07.445Z,3.78
2022-09-21T04:43:07.430Z,3.70
2022-09-21T04:44:07.424Z,3.74
2022-09-21T04:45:07.409Z,3.68
2022-09-21T04:46:07.434Z,3.74
2022-09-21T04:47:07.376Z,3.71
2022-09-21T04:48:07.367Z,3.60
2022-09-21T04:49:07.350Z,3.75
2022-09-21T04:50:07.339Z,3.80
2022-09-21T04:51:07.323Z,3.75
2022-09-21T04:52:07.317Z,3.71
2022-09-21T04:53:07.298Z,3.77
2022-09-21T04:54:07.305Z,3.89
2022-09-21T04:55:07.269Z,3.84
2022-09-21T04:56:07.268Z,3.90
2022-09-21T04:57:07.244Z,3.80
2022-09-21T04:58:07.228Z,3.90
2022-09-21T04:59:07.345Z,3.92
2022-09-21T05:00:07.201Z,3.80
2022-09-21T05:01:07.245Z,3.90
2022-09-21T05:02:07.180Z,3.90
2022-09-21T05:03:07.164Z,3.89
2022-09-21T05:04:07.151Z,3.82
2022-09-21T05:05:07.130Z,3.82
2022-09-21T05:06:07.122Z,3.96
2022-09-21T05:07:07.103Z,3.95
2022-09-21T05:08:07.094Z,3.89
2022-09-21T05:09:07.080Z,3.92
2022-09-21T05:10:07.093Z,3.96
2022-09-21T05:11:07.052Z,3.90
2022-09-21T05:12:07.086Z,3.95
2022-09-21T05:13:07.028Z,4.07
2022-09-21T05:14:07.018Z,4.08
2022-09-21T05:15:06.997Z,4.00
2022-09-21T05:16:07.065Z,4.04
2022-09-21T05:17:06.972Z,4.00
2022-09-21T05:18:06.961Z,3.96
2022-09-21T05:19:07.159Z,3.90
2022-09-21T05:20:06.934Z,3.92
2022-09-21T05:21:06.915Z,3.98
2022-09-21T05:22:06.904Z,3.96
2022-09-21T05:23:06.888Z,3.98
2022-09-21T05:24:06.882Z,4.00
2022-09-21T05:25:06.864Z,4.02
2022-09-21T05:26:06.885Z,3.99
2022-09-21T05:27:06.844Z,3.86
2022-09-21T05:28:06.826Z,3.89
2022-09-21T05:29:06.922Z,3.96
2022-09-21T05:30:06.803Z,3.90
2022-09-21T05:31:17.696Z,3.98
2022-09-21T05:32:07.795Z,3.99
2022-09-21T05:33:06.753Z,3.86
2022-09-21T05:34:06.744Z,3.93
2022-09-21T05:35:06.727Z,4.08
2022-09-21T05:36:06.723Z,4.08
2022-09-21T05:37:06.707Z,3.98
2022-09-21T05:38:06.691Z,4.13
2022-09-21T05:39:06.672Z,4.18
2022-09-21T05:40:06.710Z,4.21
2022-09-21T05:41:06.640Z,4.21
2022-09-21T05:42:06.652Z,4.18
2022-09-21T05:43:06.613Z,4.13
2022-09-21T05:44:06.605Z,4.10
2022-09-21T05:45:06.589Z,4.20
2022-09-21T05:46:06.622Z,4.28
2022-09-21T05:47:06.561Z,4.32
2022-09-21T05:48:06.556Z,4.42
2022-09-21T05:49:06.661Z,4.49
2022-09-21T05:50:06.529Z,4.42
2022-09-21T05:51:06.511Z,4.64
2022-09-21T05:52:06.507Z,4.69
2022-09-21T05:53:06.485Z,4.87
2022-09-21T05:54:06.482Z,5.06
2022-09-21T05:55:06.460Z,5.17
2022-09-21T05:56:06.450Z,5.17
2022-09-21T05:57:06.426Z,5.35
2022-09-21T05:58:06.434Z,5.41
2022-09-21T05:59:06.401Z,5.66
2022-09-21T06:00:06.410Z,5.80
2022-09-21T06:01:06.416Z,6.10
2022-09-21T06:02:06.440Z,6.28
2022-09-21T06:03:06.346Z,6.38
2022-09-21T06:04:06.465Z,6.81
2022-09-21T06:05:06.323Z,7.00
2022-09-21T06:06:06.320Z,6.97
2022-09-21T06:07:06.295Z,7.15
2022-09-21T06:08:06.284Z,7.21
2022-09-21T06:09:06.266Z,7.26
2022-09-21T06:10:06.250Z,7.30
2022-09-21T06:11:06.247Z,7.24
2022-09-21T06:12:06.229Z,7.05
2022-09-21T06:13:06.217Z,6.91
2022-09-21T06:14:06.333Z,6.76
2022-09-21T06:15:06.200Z,6.71
2022-09-21T06:16:06.168Z,6.79
2022-09-21T06:17:06.160Z,6.89
2022-09-21T06:18:06.146Z,6.83
2022-09-21T06:19:06.135Z,6.87
2022-09-21T06:20:06.116Z,7.05
2022-09-21T06:21:06.101Z,7.27
2022-09-21T06:22:06.085Z,7.50
2022-09-21T06:23:06.077Z,7.66
2022-09-21T06:24:06.064Z,8.07
2022-09-21T06:25:06.053Z,8.40
2022-09-21T06:26:06.033Z,8.65
2022-09-21T06:27:06.018Z,8.88
2022-09-21T06:28:06.003Z,9.22
2022-09-21T06:29:05.997Z,9.44
2022-09-21T06:30:06.002Z,9.80
2022-09-21T06:31:06.015Z,9.75
2022-09-21T06:32:05.955Z,10.07
2022-09-21T06:33:05.944Z,10.04
2022-09-21T06:34:06.055Z,10.14
2022-09-21T06:35:05.920Z,10.25
2022-09-21T06:36:05.902Z,10.49
2022-09-21T06:37:05.886Z,10.80
2022-09-21T06:38:05.868Z,10.84
2022-09-21T06:39:05.854Z,10.99
2022-09-21T06:40:05.888Z,11.28
2022-09-21T06:41:05.831Z,11.42
2022-09-21T06:42:05.812Z,11.49
2022-09-21T06:43:05.810Z,11.66
2022-09-21T06:44:05.921Z,11.56
2022-09-21T06:45:05.776Z,11.69
2022-09-21T06:46:05.805Z,11.54
2022-09-21T06:47:05.750Z,11.77
2022-09-21T06:48:05.734Z,12.01
2022-09-21T06:49:05.779Z,12.08
2022-09-21T06:50:05.708Z,12.41
2022-09-21T06:51:05.698Z,12.55
2022-09-21T06:52:05.685Z,12.95
2022-09-21T06:53:05.667Z,13.03
2022-09-21T06:54:05.651Z,13.13
2022-09-21T06:55:05.639Z,13.17
2022-09-21T06:56:05.629Z,13.35
2022-09-21T06:57:05.620Z,13.47
2022-09-21T06:58:05.603Z,13.41
2022-09-21T06:59:05.594Z,13.50
2022-09-21T07:00:05.577Z,13.75
2022-09-21T07:01:05.721Z,14.01
2022-09-21T07:02:05.670Z,14.09
2022-09-21T07:03:05.535Z,14.09
2022-09-21T07:04:05.646Z,14.20
2022-09-21T07:05:05.510Z,14.09
2022-09-21T07:06:05.492Z,14.26
2022-09-21T07:07:05.487Z,14.31
2022-09-21T07:08:05.805Z,14.27
2022-09-21T07:10:06.458Z,14.11
2022-09-21T07:11:05.430Z,14.31
2022-09-21T07:12:05.408Z,14.59
2022-09-21T07:13:05.403Z,14.97
2022-09-21T07:14:05.542Z,15.25
2022-09-21T07:15:05.375Z,15.13
2022-09-21T07:16:05.412Z,14.94
2022-09-21T07:17:05.341Z,13.88
2022-09-21T07:18:05.984Z,13.57
2022-09-21T07:19:10.925Z,13.88
2022-09-21T07:20:06.322Z,14.08
2022-09-21T07:21:05.296Z,14.38
2022-09-21T07:22:05.270Z,14.80
2022-09-21T07:23:05.258Z,15.04
2022-09-21T07:24:09.601Z,15.18
2022-09-21T07:25:06.255Z,15.19
2022-09-21T07:26:05.218Z,15.60
2022-09-21T07:27:05.213Z,15.68
2022-09-21T07:28:05.195Z,16.08
2022-09-21T07:29:05.362Z,16.27
2022-09-21T07:30:05.165Z,16.41
2022-09-21T07:31:05.156Z,16.41
2022-09-21T07:32:05.140Z,16.65
2022-09-21T07:33:05.124Z,16.87
2022-09-21T07:34:05.131Z,17.22
2022-09-21T07:35:05.101Z,17.22
2022-09-21T07:36:05.084Z,17.15
2022-09-21T07:37:05.073Z,17.05
2022-09-21T07:38:05.058Z,17.06
2022-09-21T07:39:05.051Z,16.69
2022-09-21T07:40:05.104Z,16.22
2022-09-21T07:41:05.023Z,16.22
2022-09-21T07:42:05.028Z,16.32
2022-09-21T07:43:04.992Z,16.30
2022-09-21T07:44:05.108Z,16.13
2022-09-21T07:45:05.182Z,15.96
2022-09-21T07:46:04.988Z,15.28
2022-09-21T07:47:04.940Z,14.48
2022-09-21T07:48:04.925Z,14.04
2022-09-21T07:49:04.916Z,13.47
2022-09-21T07:50:04.920Z,12.98
2022-09-21T07:51:04.886Z,12.77
2022-09-21T07:52:07.325Z,12.34
2022-09-21T07:53:04.858Z,12.18
2022-09-21T07:54:04.841Z,11.87
2022-09-21T07:55:04.836Z,11.70
2022-09-21T07:56:04.811Z,11.49
2022-09-21T07:57:04.806Z,11.31
2022-09-21T07:58:04.786Z,11.26
2022-09-21T07:59:04.774Z,11.21
2022-09-21T08:00:04.762Z,10.99
2022-09-21T08:01:04.780Z,10.93
2022-09-21T08:02:04.804Z,10.99
2022-09-21T08:03:04.724Z,10.91
2022-09-21T08:04:04.875Z,10.83
2022-09-21T08:05:04.695Z,10.58
2022-09-21T08:06:04.716Z,10.57
2022-09-21T08:07:04.666Z,10.69
2022-09-21T08:08:04.659Z,10.65
2022-09-21T08:09:04.653Z,10.80
2022-09-21T08:10:04.633Z,11.26
2022-09-21T08:11:04.614Z,12.26
2022-09-21T08:12:04.596Z,13.24
2022-09-21T08:13:04.595Z,14.01
2022-09-21T08:14:04.700Z,14.45
2022-09-21T08:15:04.566Z,15.25
2022-09-21T08:16:04.652Z,15.68
2022-09-21T08:17:04.538Z,15.95
2022-09-21T08:18:04.518Z,16.22
2022-09-21T08:19:04.514Z,16.27
2022-09-21T08:20:04.492Z,16.62
2022-09-21T08:21:04.479Z,16.91
2022-09-21T08:22:04.525Z,17.36
2022-09-21T08:23:04.455Z,17.92
2022-09-21T08:24:04.436Z,18.36
2022-09-21T08:25:04.431Z,18.65
2022-09-21T08:26:04.407Z,19.10
2022-09-21T08:27:04.397Z,18.89
2022-09-21T08:28:09.416Z,18.62
2022-09-21T08:29:04.438Z,18.60
2022-09-21T08:30:04.355Z,18.83
2022-09-21T08:31:04.365Z,19.13
2022-09-21T08:32:04.393Z,19.32
2022-09-21T08:33:04.324Z,19.25
2022-09-21T08:34:04.301Z,19.09
2022-09-21T08:35:04.300Z,18.69
2022-09-21T08:36:04.285Z,18.87
2022-09-21T08:37:04.258Z,19.39
2022-09-21T08:38:04.279Z,19.80
2022-09-21T08:39:04.234Z,20.02
2022-09-21T08:40:04.272Z,20.19
2022-09-21T08:41:04.209Z,20.42
2022-09-21T08:42:04.193Z,20.58
2022-09-21T08:43:04.180Z,20.75
2022-09-21T08:44:04.163Z,21.01
2022-09-21T08:45:04.155Z,21.21
2022-09-21T08:46:04.141Z,20.97
2022-09-21T08:47:04.175Z,21.13
2022-09-21T08:48:04.123Z,21.52
2022-09-21T08:49:04.101Z,21.82
2022-09-21T08:50:04.091Z,22.01
2022-09-21T08:51:04.078Z,22.08
2022-09-21T08:52:04.055Z,22.49
2022-09-21T08:53:04.051Z,22.88
2022-09-21T08:54:04.153Z,22.36
2022-09-21T08:55:04.026Z,22.46
2022-09-21T08:56:04.010Z,22.70
2022-09-21T08:57:05.779Z,22.82
2022-09-21T08:58:03.986Z,23.03
2022-09-21T08:59:03.973Z,23.16
2022-09-21T09:00:03.958Z,23.63
2022-09-21T09:01:07.071Z,23.77
2022-09-21T09:02:04.024Z,23.86
2022-09-21T09:03:03.918Z,23.89
2022-09-21T09:04:05.785Z,24.05
2022-09-21T09:05:03.892Z,24.02
2022-09-21T09:06:03.875Z,23.84
2022-09-21T09:07:03.867Z,24.12
2022-09-21T09:08:03.848Z,24.36
2022-09-21T09:09:03.842Z,24.77
2022-09-21T09:10:03.847Z,24.80
2022-09-21T09:11:03.824Z,24.77
2022-09-21T09:12:07.433Z,24.83
2022-09-21T09:13:04.816Z,25.16
2022-09-21T09:14:03.777Z,24.83
2022-09-21T09:15:03.764Z,24.93
2022-09-21T09:16:03.808Z,24.93
2022-09-21T09:17:03.736Z,24.84
2022-09-21T09:18:03.717Z,25.04
2022-09-21T09:19:03.727Z,25.60
2022-09-21T09:20:03.694Z,26.21
2022-09-21T09:21:03.693Z,26.76
2022-09-21T09:22:03.672Z,26.71
2022-09-21T09:23:03.662Z,27.24
2022-09-21T09:24:03.652Z,27.52
2022-09-21T09:25:03.632Z,27.93
2022-09-21T09:26:03.639Z,28.20
2022-09-21T09:27:03.612Z,28.24
2022-09-21T09:28:03.598Z,28.61
2022-09-21T09:29:03.587Z,28.88
2022-09-21T09:30:04.158Z,29.07
2022-09-21T09:31:03.595Z,29.00
2022-09-21T09:32:03.592Z,29.05
2022-09-21T09:33:03.543Z,29.17
2022-09-21T09:34:03.522Z,29.14
2022-09-21T09:35:03.514Z,29.21
2022-09-21T09:36:03.504Z,29.49
2022-09-21T09:37:03.491Z,29.74
2022-09-21T09:38:03.474Z,29.86
2022-09-21T09:39:03.459Z,29.55
2022-09-21T09:40:03.940Z,29.30
2022-09-21T09:41:03.438Z,28.87
2022-09-21T09:42:03.478Z,28.45
2022-09-21T09:43:04.947Z,28.13
2022-09-21T09:44:03.390Z,27.76
2022-09-21T09:45:03.383Z,27.88
2022-09-21T09:46:03.369Z,28.25
2022-09-21T09:47:03.447Z,28.30
2022-09-21T09:48:03.340Z,28.46
2022-09-21T09:49:03.383Z,28.38
2022-09-21T09:50:03.319Z,28.23
2022-09-21T09:51:03.310Z,28.23
2022-09-21T09:52:03.297Z,28.42
2022-09-21T09:53:03.284Z,28.33
2022-09-21T09:54:06.870Z,27.86
2022-09-21T09:55:04.276Z,28.08
2022-09-21T09:56:03.250Z,27.77
2022-09-21T09:57:03.240Z,27.83
2022-09-21T09:58:03.253Z,27.84
2022-09-21T09:59:03.218Z,28.48
2022-09-21T10:00:03.195Z,29.15
2022-09-21T10:01:03.187Z,29.25
2022-09-21T10:02:03.281Z,28.54
2022-09-21T10:03:03.165Z,28.21
2022-09-21T10:04:03.190Z,27.20
2022-09-21T10:05:03.135Z,27.09
2022-09-21T10:06:03.123Z,26.91
2022-09-21T10:07:03.108Z,26.36
2022-09-21T10:08:03.096Z,26.65
2022-09-21T10:09:03.086Z,26.47
2022-09-21T10:10:03.070Z,25.85
2022-09-21T10:11:03.060Z,25.54
2022-09-21T10:12:08.076Z,25.74
2022-09-21T10:13:04.058Z,26.60
2022-09-21T10:14:03.050Z,26.93
2022-09-21T10:15:03.016Z,27.01
2022-09-21T10:16:03.078Z,26.84
2022-09-21T10:17:02.990Z,27.25
2022-09-21T10:18:02.979Z,27.24
2022-09-21T10:19:02.965Z,26.79
2022-09-21T10:20:02.948Z,26.17
2022-09-21T10:21:02.934Z,25.41
2022-09-21T10:22:02.919Z,24.21
2022-09-21T10:23:02.916Z,23.57
2022-09-21T10:24:02.895Z,23.62
2022-09-21T10:25:02.881Z,23.77
2022-09-21T10:26:02.870Z,23.82
2022-09-21T10:27:02.857Z,23.34
2022-09-21T10:28:02.852Z,22.51
2022-09-21T10:29:02.838Z,21.71
2022-09-21T10:30:02.847Z,21.36
2022-09-21T10:31:02.877Z,21.31
2022-09-21T10:32:02.802Z,21.38
2022-09-21T10:33:02.790Z,21.22
2022-09-21T10:34:02.775Z,21.59
2022-09-21T10:35:02.758Z,21.56
2022-09-21T10:36:02.750Z,21.53
2022-09-21T10:37:02.734Z,21.51
2022-09-21T10:38:02.727Z,21.38
2022-09-21T10:39:02.706Z,21.55
2022-09-21T10:40:02.758Z,21.34
2022-09-21T10:41:02.676Z,21.46
2022-09-21T10:42:02.667Z,21.09
2022-09-21T10:43:02.655Z,20.71
2022-09-21T10:44:02.641Z,20.22
2022-09-21T10:45:02.629Z,20.22
2022-09-21T10:46:02.716Z,19.97
2022-09-21T10:47:02.604Z,19.79
2022-09-21T10:48:02.594Z,19.70
2022-09-21T10:49:02.587Z,19.70
2022-09-21T10:50:02.571Z,19.65
2022-09-21T10:51:02.549Z,19.68
2022-09-21T10:52:02.542Z,19.60
2022-09-21T10:53:02.521Z,19.49
2022-09-21T10:54:02.512Z,19.52
2022-09-21T10:55:02.497Z,19.40
2022-09-21T10:56:15.417Z,19.40
2022-09-21T10:57:03.500Z,19.39
2022-09-21T10:58:02.461Z,19.32
2022-09-21T10:59:02.448Z,19.25
2022-09-21T11:00:02.444Z,19.42
2022-09-21T11:01:02.415Z,19.68
2022-09-21T11:02:02.553Z,20.00
2022-09-21T11:03:02.419Z,20.15
2022-09-21T11:04:02.383Z,20.46
2022-09-21T11:05:02.362Z,20.61
2022-09-21T11:06:02.354Z,20.91
2022-09-21T11:07:02.338Z,20.69
2022-09-21T11:08:02.329Z,20.83
2022-09-21T11:09:02.312Z,21.58
2022-09-21T11:10:02.303Z,21.73
2022-09-21T11:11:02.289Z,21.52
2022-09-21T11:12:02.279Z,21.18
2022-09-21T11:13:02.262Z,20.73
2022-09-21T11:14:02.254Z,20.54
2022-09-21T11:15:02.234Z,20.81
2022-09-21T11:16:02.338Z,20.23
2022-09-21T11:17:02.203Z,19.42
2022-09-21T11:18:02.219Z,18.87
2022-09-21T11:19:02.178Z,18.28
2022-09-21T11:20:02.171Z,19.57
2022-09-21T11:21:02.154Z,20.61
2022-09-21T11:22:02.143Z,21.68
2022-09-21T11:23:02.130Z,22.19
2022-09-21T11:24:02.132Z,21.82
2022-09-21T11:25:02.107Z,21.53
2022-09-21T11:26:02.096Z,21.89
2022-09-21T11:27:02.074Z,23.09
2022-09-21T11:28:02.068Z,24.19
2022-09-21T11:29:02.052Z,24.45
2022-09-21T11:30:02.037Z,24.64
2022-09-21T11:31:02.069Z,25.14
2022-09-21T11:32:05.795Z,25.26
2022-09-21T11:33:01.994Z,25.35
2022-09-21T11:34:02.006Z,25.85
2022-09-21T11:35:01.972Z,26.24
2022-09-21T11:36:01.961Z,25.11
2022-09-21T11:37:02.005Z,24.06
2022-09-21T11:38:01.935Z,22.27
2022-09-21T11:39:01.915Z,22.08
2022-09-21T11:40:01.918Z,22.78
2022-09-21T11:41:01.893Z,23.63
2022-09-21T11:42:01.892Z,24.00
2022-09-21T11:43:01.860Z,24.16
2022-09-21T11:44:03.239Z,24.33
2022-09-21T11:45:01.861Z,24.37
2022-09-21T11:46:01.866Z,24.19
2022-09-21T11:47:01.818Z,24.27
2022-09-21T11:48:01.800Z,24.89
2022-09-21T11:49:01.788Z,25.14
2022-09-21T11:50:26.521Z,24.84
2022-09-21T11:51:02.787Z,24.29
2022-09-21T11:52:01.747Z,24.74
2022-09-21T11:53:01.736Z,24.90
2022-09-21T11:54:01.726Z,25.34
2022-09-21T11:55:01.713Z,25.20
2022-09-21T11:56:01.767Z,25.34
2022-09-21T11:57:01.697Z,25.69
2022-09-21T11:58:01.686Z,24.89
2022-09-21T11:59:01.708Z,24.16
2022-09-21T12:00:01.645Z,23.87
2022-09-21T12:01:01.716Z,22.61
2022-09-21T12:02:01.664Z,22.35
2022-09-21T12:03:01.603Z,21.46
2022-09-21T12:04:01.622Z,22.44
2022-09-21T12:05:01.574Z,23.06
2022-09-21T12:06:01.590Z,22.52
2022-09-21T12:07:01.657Z,22.41
2022-09-21T12:08:01.539Z,22.74
2022-09-21T12:09:01.526Z,22.86
2022-09-21T12:10:01.515Z,23.21
2022-09-21T12:11:01.494Z,23.89
2022-09-21T12:12:01.486Z,24.77
2022-09-21T12:13:01.475Z,25.49
2022-09-21T12:14:01.468Z,25.90
2022-09-21T12:15:01.495Z,26.04
2022-09-21T12:16:01.498Z,26.39
2022-09-21T12:17:01.508Z,26.86
2022-09-21T12:18:01.414Z,27.06
2022-09-21T12:19:01.399Z,27.28
2022-09-21T12:20:01.446Z,26.84
2022-09-21T12:21:01.369Z,26.53
2022-09-21T12:22:01.380Z,26.53
2022-09-21T12:23:01.343Z,26.38
2022-09-21T12:24:01.339Z,26.06
2022-09-21T12:25:01.323Z,25.23
2022-09-21T12:26:01.308Z,24.44
2022-09-21T12:27:01.291Z,23.47
2022-09-21T12:28:01.283Z,22.59
2022-09-21T12:29:01.275Z,22.38
2022-09-21T12:30:01.261Z,23.14
2022-09-21T12:31:01.288Z,23.86
2022-09-21T12:32:01.236Z,24.15
2022-09-21T12:33:01.270Z,24.49
2022-09-21T12:34:01.208Z,25.08
2022-09-21T12:35:01.196Z,25.57
2022-09-21T12:36:01.176Z,25.85
2022-09-21T12:37:01.164Z,25.72
2022-09-21T12:38:01.175Z,25.46
2022-09-21T12:39:01.137Z,25.44
2022-09-21T12:40:01.161Z,25.61
2022-09-21T12:41:01.115Z,25.86
2022-09-21T12:42:01.102Z,25.98
2022-09-21T12:43:01.087Z,25.39
2022-09-21T12:44:01.079Z,25.27
2022-09-21T12:45:01.062Z,25.46
2022-09-21T12:46:01.066Z,25.93
2022-09-21T12:47:01.037Z,26.42
2022-09-21T12:48:01.022Z,26.35
2022-09-21T12:49:01.006Z,25.57
2022-09-21T12:50:01.002Z,24.93
2022-09-21T12:51:05.682Z,24.89
2022-09-21T12:52:00.975Z,25.26
2022-09-21T12:53:00.959Z,25.12
2022-09-21T12:54:00.988Z,25.08
2022-09-21T12:55:01.318Z,25.20
2022-09-21T12:56:00.926Z,25.53
2022-09-21T12:57:03.809Z,25.90
2022-09-21T12:58:15.104Z,26.06
2022-09-21T12:59:01.904Z,26.59
2022-09-21T13:00:00.870Z,26.73
2022-09-21T13:01:00.968Z,26.47
2022-09-21T13:02:00.955Z,26.20
2022-09-21T13:03:00.831Z,25.90
2022-09-21T13:04:00.864Z,25.98
2022-09-21T13:05:00.805Z,25.97
2022-09-21T13:06:00.795Z,25.38